sensor_id;sensor_type;location;lat;lon;timestamp;P1;durP1;ratioP1;P2;durP2;ratioP2
62584;SDS011;48643;51.670;5.808;2022-11-13T00:01:28;9.60;;;4.75;;
62584;SDS011;48643;51.670;5.808;2022-11-13T00:04:13;7.93;;;5.00;;
62584;SDS011;48643;51.670;5.808;2022-11-13T00:06:59;7.82;;;5.20;;
62584;SDS011;48643;51.670;5.808;2022-11-13T00:09:44;10.13;;;5.70;;
62584;SDS011;48643;51.670;5.808;2022-11-13T00:12:30;9.98;;;5.03;;
62584;SDS011;48643;51.670;5.808;2022-11-13T00:15:15;7.10;;;4.88;;
62584;SDS011;48643;51.670;5.808;2022-11-13T00:18:01;8.95;;;5.22;;
62584;SDS011;48643;51.670;5.808;2022-11-13T00:20:47;9.18;;;5.20;;
62584;SDS011;48643;51.670;5.808;2022-11-13T00:23:33;7.13;;;4.90;;
62584;SDS011;48643;51.670;5.808;2022-11-13T00:26:20;8.68;;;5.43;;
62584;SDS011;48643;51.670;5.808;2022-11-13T00:29:07;8.52;;;5.10;;
62584;SDS011;48643;51.670;5.808;2022-11-13T00:31:53;7.88;;;4.97;;
62584;SDS011;48643;51.670;5.808;2022-11-13T00:34:38;7.35;;;4.97;;
62584;SDS011;48643;51.670;5.808;2022-11-13T00:37:32;6.75;;;4.80;;
62584;SDS011;48643;51.670;5.808;2022-11-13T00:40:18;8.27;;;5.20;;
62584;SDS011;48643;51.670;5.808;2022-11-13T00:43:03;6.63;;;4.70;;
62584;SDS011;48643;51.670;5.808;2022-11-13T00:45:49;7.25;;;5.18;;
62584;SDS011;48643;51.670;5.808;2022-11-13T00:48:34;7.95;;;4.72;;
62584;SDS011;48643;51.670;5.808;2022-11-13T00:51:20;6.95;;;5.20;;
62584;SDS011;48643;51.670;5.808;2022-11-13T00:54:05;6.70;;;4.80;;
62584;SDS011;48643;51.670;5.808;2022-11-13T00:56:51;10.13;;;5.18;;
62584;SDS011;48643;51.670;5.808;2022-11-13T00:59:36;7.47;;;4.95;;
62584;SDS011;48643;51.670;5.808;2022-11-13T01:02:22;6.88;;;4.70;;
62584;SDS011;48643;51.670;5.808;2022-11-13T01:05:07;8.38;;;5.00;;
62584;SDS011;48643;51.670;5.808;2022-11-13T01:07:53;7.25;;;4.90;;
62584;SDS011;48643;51.670;5.808;2022-11-13T01:10:40;7.60;;;4.80;;
62584;SDS011;48643;51.670;5.808;2022-11-13T01:13:31;8.00;;;5.50;;
62584;SDS011;48643;51.670;5.808;2022-11-13T01:16:18;8.02;;;5.30;;
62584;SDS011;48643;51.670;5.808;2022-11-13T01:19:05;8.50;;;5.30;;
62584;SDS011;48643;51.670;5.808;2022-11-13T01:21:53;8.52;;;5.18;;
62584;SDS011;48643;51.670;5.808;2022-11-13T01:24:39;8.25;;;4.85;;
62584;SDS011;48643;51.670;5.808;2022-11-13T01:27:24;6.78;;;4.75;;
62584;SDS011;48643;51.670;5.808;2022-11-13T01:30:10;8.73;;;5.22;;
62584;SDS011;48643;51.670;5.808;2022-11-13T01:32:55;6.63;;;4.82;;
62584;SDS011;48643;51.670;5.808;2022-11-13T01:35:41;7.78;;;4.90;;
62584;SDS011;48643;51.670;5.808;2022-11-13T01:38:26;8.65;;;5.15;;
62584;SDS011;48643;51.670;5.808;2022-11-13T01:41:22;8.48;;;4.88;;
62584;SDS011;48643;51.670;5.808;2022-11-13T01:44:13;7.15;;;4.95;;
62584;SDS011;48643;51.670;5.808;2022-11-13T01:47:01;6.80;;;4.97;;
62584;SDS011;48643;51.670;5.808;2022-11-13T01:49:48;6.85;;;4.55;;
62584;SDS011;48643;51.670;5.808;2022-11-13T01:52:36;8.07;;;4.53;;
62584;SDS011;48643;51.670;5.808;2022-11-13T01:55:23;7.95;;;5.10;;
62584;SDS011;48643;51.670;5.808;2022-11-13T01:58:08;6.72;;;5.10;;
62584;SDS011;48643;51.670;5.808;2022-11-13T02:00:54;6.40;;;4.80;;
62584;SDS011;48643;51.670;5.808;2022-11-13T02:03:40;6.63;;;4.93;;
62584;SDS011;48643;51.670;5.808;2022-11-13T02:06:27;8.15;;;4.80;;
62584;SDS011;48643;51.670;5.808;2022-11-13T02:09:15;7.90;;;4.85;;
62584;SDS011;48643;51.670;5.808;2022-11-13T02:12:02;7.97;;;5.00;;
62584;SDS011;48643;51.670;5.808;2022-11-13T02:14:52;6.07;;;4.63;;
62584;SDS011;48643;51.670;5.808;2022-11-13T02:17:43;6.95;;;4.88;;
62584;SDS011;48643;51.670;5.808;2022-11-13T02:20:39;6.53;;;4.70;;
62584;SDS011;48643;51.670;5.808;2022-11-13T02:26:34;6.28;;;4.70;;
62584;SDS011;48643;51.670;5.808;2022-11-13T02:29:20;6.80;;;4.60;;
62584;SDS011;48643;51.670;5.808;2022-11-13T02:32:06;6.43;;;4.53;;
62584;SDS011;48643;51.670;5.808;2022-11-13T02:34:51;6.57;;;4.80;;
62584;SDS011;48643;51.670;5.808;2022-11-13T02:37:37;6.90;;;4.90;;
62584;SDS011;48643;51.670;5.808;2022-11-13T02:40:23;6.68;;;4.68;;
62584;SDS011;48643;51.670;5.808;2022-11-13T02:43:08;6.45;;;5.03;;
62584;SDS011;48643;51.670;5.808;2022-11-13T02:45:54;6.55;;;4.40;;
62584;SDS011;48643;51.670;5.808;2022-11-13T02:48:39;6.68;;;4.82;;
62584;SDS011;48643;51.670;5.808;2022-11-13T02:51:25;6.63;;;4.70;;
62584;SDS011;48643;51.670;5.808;2022-11-13T02:54:10;6.07;;;4.68;;
62584;SDS011;48643;51.670;5.808;2022-11-13T02:57:00;6.38;;;4.57;;
62584;SDS011;48643;51.670;5.808;2022-11-13T02:59:46;6.10;;;4.40;;
62584;SDS011;48643;51.670;5.808;2022-11-13T03:02:31;6.55;;;4.30;;
62584;SDS011;48643;51.670;5.808;2022-11-13T03:05:17;5.63;;;4.40;;
62584;SDS011;48643;51.670;5.808;2022-11-13T03:08:02;8.57;;;5.00;;
62584;SDS011;48643;51.670;5.808;2022-11-13T03:10:48;6.18;;;4.50;;
62584;SDS011;48643;51.670;5.808;2022-11-13T03:13:33;7.15;;;4.57;;
62584;SDS011;48643;51.670;5.808;2022-11-13T03:16:19;6.05;;;4.50;;
62584;SDS011;48643;51.670;5.808;2022-11-13T03:19:04;6.05;;;4.53;;
62584;SDS011;48643;51.670;5.808;2022-11-13T03:21:50;5.80;;;4.57;;
62584;SDS011;48643;51.670;5.808;2022-11-13T03:24:35;6.47;;;4.30;;
62584;SDS011;48643;51.670;5.808;2022-11-13T03:27:21;7.25;;;4.55;;
62584;SDS011;48643;51.670;5.808;2022-11-13T03:30:06;6.32;;;4.65;;
62584;SDS011;48643;51.670;5.808;2022-11-13T03:32:55;8.45;;;5.10;;
62584;SDS011;48643;51.670;5.808;2022-11-13T03:35:41;7.47;;;4.72;;
62584;SDS011;48643;51.670;5.808;2022-11-13T03:38:31;6.25;;;4.47;;
62584;SDS011;48643;51.670;5.808;2022-11-13T03:41:17;5.70;;;4.50;;
62584;SDS011;48643;51.670;5.808;2022-11-13T03:44:02;5.95;;;4.57;;
62584;SDS011;48643;51.670;5.808;2022-11-13T03:46:48;6.60;;;4.32;;
62584;SDS011;48643;51.670;5.808;2022-11-13T03:49:34;5.90;;;4.40;;
62584;SDS011;48643;51.670;5.808;2022-11-13T03:52:19;6.45;;;4.78;;
62584;SDS011;48643;51.670;5.808;2022-11-13T03:55:05;6.05;;;4.55;;
62584;SDS011;48643;51.670;5.808;2022-11-13T03:57:51;7.00;;;4.63;;
62584;SDS011;48643;51.670;5.808;2022-11-13T04:00:36;6.10;;;4.50;;
62584;SDS011;48643;51.670;5.808;2022-11-13T04:03:23;5.28;;;4.00;;
62584;SDS011;48643;51.670;5.808;2022-11-13T04:06:09;5.95;;;4.35;;
62584;SDS011;48643;51.670;5.808;2022-11-13T04:08:54;6.15;;;4.38;;
62584;SDS011;48643;51.670;5.808;2022-11-13T04:11:39;6.13;;;4.25;;
62584;SDS011;48643;51.670;5.808;2022-11-13T04:14:25;7.32;;;4.40;;
62584;SDS011;48643;51.670;5.808;2022-11-13T04:17:10;6.05;;;4.25;;
62584;SDS011;48643;51.670;5.808;2022-11-13T04:19:56;6.25;;;4.20;;
62584;SDS011;48643;51.670;5.808;2022-11-13T04:22:41;6.22;;;4.30;;
62584;SDS011;48643;51.670;5.808;2022-11-13T04:25:27;5.60;;;4.15;;
62584;SDS011;48643;51.670;5.808;2022-11-13T04:28:12;5.60;;;4.47;;
62584;SDS011;48643;51.670;5.808;2022-11-13T04:30:58;6.72;;;4.47;;
62584;SDS011;48643;51.670;5.808;2022-11-13T04:33:43;7.10;;;4.60;;
62584;SDS011;48643;51.670;5.808;2022-11-13T04:36:28;6.82;;;4.53;;
62584;SDS011;48643;51.670;5.808;2022-11-13T04:39:14;5.75;;;4.40;;
62584;SDS011;48643;51.670;5.808;2022-11-13T04:41:59;5.80;;;4.50;;
62584;SDS011;48643;51.670;5.808;2022-11-13T04:45:03;6.57;;;4.47;;
62584;SDS011;48643;51.670;5.808;2022-11-13T04:47:49;7.05;;;4.50;;
62584;SDS011;48643;51.670;5.808;2022-11-13T04:50:35;6.50;;;4.43;;
62584;SDS011;48643;51.670;5.808;2022-11-13T04:53:21;6.32;;;4.50;;
62584;SDS011;48643;51.670;5.808;2022-11-13T04:56:06;7.47;;;4.50;;
62584;SDS011;48643;51.670;5.808;2022-11-13T04:58:52;7.75;;;4.80;;
62584;SDS011;48643;51.670;5.808;2022-11-13T05:01:37;7.22;;;4.65;;
62584;SDS011;48643;51.670;5.808;2022-11-13T05:04:23;7.13;;;4.50;;
62584;SDS011;48643;51.670;5.808;2022-11-13T05:07:08;6.25;;;4.40;;
62584;SDS011;48643;51.670;5.808;2022-11-13T05:09:53;5.72;;;4.43;;
62584;SDS011;48643;51.670;5.808;2022-11-13T05:12:39;5.85;;;4.20;;
62584;SDS011;48643;51.670;5.808;2022-11-13T05:15:24;6.57;;;4.60;;
62584;SDS011;48643;51.670;5.808;2022-11-13T05:18:10;6.35;;;4.57;;
62584;SDS011;48643;51.670;5.808;2022-11-13T05:20:55;6.13;;;4.18;;
62584;SDS011;48643;51.670;5.808;2022-11-13T05:23:41;6.45;;;4.28;;
62584;SDS011;48643;51.670;5.808;2022-11-13T05:26:26;5.97;;;4.28;;
62584;SDS011;48643;51.670;5.808;2022-11-13T05:29:12;6.05;;;4.22;;
62584;SDS011;48643;51.670;5.808;2022-11-13T05:31:57;6.13;;;4.38;;
62584;SDS011;48643;51.670;5.808;2022-11-13T05:34:43;7.43;;;4.47;;
62584;SDS011;48643;51.670;5.808;2022-11-13T05:37:28;6.93;;;4.60;;
62584;SDS011;48643;51.670;5.808;2022-11-13T05:40:14;6.57;;;4.00;;
62584;SDS011;48643;51.670;5.808;2022-11-13T05:42:59;6.00;;;4.40;;
62584;SDS011;48643;51.670;5.808;2022-11-13T05:45:45;5.40;;;4.00;;
62584;SDS011;48643;51.670;5.808;2022-11-13T05:48:31;6.45;;;4.70;;
62584;SDS011;48643;51.670;5.808;2022-11-13T05:51:18;5.85;;;4.15;;
62584;SDS011;48643;51.670;5.808;2022-11-13T05:54:05;8.40;;;4.28;;
62584;SDS011;48643;51.670;5.808;2022-11-13T05:56:50;5.63;;;4.38;;
62584;SDS011;48643;51.670;5.808;2022-11-13T05:59:36;6.35;;;4.50;;
62584;SDS011;48643;51.670;5.808;2022-11-13T06:02:21;7.00;;;4.35;;
62584;SDS011;48643;51.670;5.808;2022-11-13T06:05:07;5.82;;;4.25;;
62584;SDS011;48643;51.670;5.808;2022-11-13T06:07:53;6.07;;;4.20;;
62584;SDS011;48643;51.670;5.808;2022-11-13T06:10:38;6.65;;;4.40;;
62584;SDS011;48643;51.670;5.808;2022-11-13T06:13:24;6.65;;;4.47;;
62584;SDS011;48643;51.670;5.808;2022-11-13T06:16:11;5.85;;;4.30;;
62584;SDS011;48643;51.670;5.808;2022-11-13T06:19:02;6.15;;;4.43;;
62584;SDS011;48643;51.670;5.808;2022-11-13T06:21:49;6.25;;;4.40;;
62584;SDS011;48643;51.670;5.808;2022-11-13T06:24:34;6.30;;;4.40;;
62584;SDS011;48643;51.670;5.808;2022-11-13T06:27:20;6.13;;;4.05;;
62584;SDS011;48643;51.670;5.808;2022-11-13T06:30:06;5.85;;;4.40;;
62584;SDS011;48643;51.670;5.808;2022-11-13T06:32:52;7.22;;;4.50;;
62584;SDS011;48643;51.670;5.808;2022-11-13T06:35:37;6.20;;;4.43;;
62584;SDS011;48643;51.670;5.808;2022-11-13T06:38:23;6.85;;;4.22;;
62584;SDS011;48643;51.670;5.808;2022-11-13T06:41:09;8.13;;;4.30;;
62584;SDS011;48643;51.670;5.808;2022-11-13T06:43:56;5.80;;;4.22;;
62584;SDS011;48643;51.670;5.808;2022-11-13T06:46:46;6.22;;;4.35;;
62584;SDS011;48643;51.670;5.808;2022-11-13T06:49:32;5.43;;;3.97;;
62584;SDS011;48643;51.670;5.808;2022-11-13T06:52:17;6.65;;;4.13;;
62584;SDS011;48643;51.670;5.808;2022-11-13T06:55:03;6.15;;;4.47;;
62584;SDS011;48643;51.670;5.808;2022-11-13T06:57:49;6.85;;;4.22;;
62584;SDS011;48643;51.670;5.808;2022-11-13T07:00:34;5.57;;;4.00;;
62584;SDS011;48643;51.670;5.808;2022-11-13T07:06:11;8.57;;;4.20;;
62584;SDS011;48643;51.670;5.808;2022-11-13T07:08:58;6.72;;;3.88;;
62584;SDS011;48643;51.670;5.808;2022-11-13T07:11:44;5.30;;;3.90;;
62584;SDS011;48643;51.670;5.808;2022-11-13T07:14:29;12.38;;;4.05;;
62584;SDS011;48643;51.670;5.808;2022-11-13T07:17:15;6.88;;;4.40;;
62584;SDS011;48643;51.670;5.808;2022-11-13T07:20:00;5.82;;;4.10;;
62584;SDS011;48643;51.670;5.808;2022-11-13T07:22:46;10.15;;;4.40;;
62584;SDS011;48643;51.670;5.808;2022-11-13T07:25:31;7.30;;;3.90;;
62584;SDS011;48643;51.670;5.808;2022-11-13T07:28:17;6.93;;;4.10;;
62584;SDS011;48643;51.670;5.808;2022-11-13T07:31:02;6.60;;;4.20;;
62584;SDS011;48643;51.670;5.808;2022-11-13T07:33:48;6.22;;;4.20;;
62584;SDS011;48643;51.670;5.808;2022-11-13T07:36:34;5.60;;;3.95;;
62584;SDS011;48643;51.670;5.808;2022-11-13T07:39:20;5.80;;;4.10;;
62584;SDS011;48643;51.670;5.808;2022-11-13T07:42:06;8.35;;;3.85;;
62584;SDS011;48643;51.670;5.808;2022-11-13T07:44:51;7.10;;;4.20;;
62584;SDS011;48643;51.670;5.808;2022-11-13T07:47:39;6.25;;;3.90;;
62584;SDS011;48643;51.670;5.808;2022-11-13T07:50:25;5.78;;;4.05;;
62584;SDS011;48643;51.670;5.808;2022-11-13T07:53:12;6.93;;;4.20;;
62584;SDS011;48643;51.670;5.808;2022-11-13T07:56:01;6.45;;;4.00;;
62584;SDS011;48643;51.670;5.808;2022-11-13T07:58:48;6.97;;;4.40;;
62584;SDS011;48643;51.670;5.808;2022-11-13T08:01:33;7.60;;;4.20;;
62584;SDS011;48643;51.670;5.808;2022-11-13T08:04:19;11.45;;;4.30;;
62584;SDS011;48643;51.670;5.808;2022-11-13T08:07:04;6.47;;;4.30;;
62584;SDS011;48643;51.670;5.808;2022-11-13T08:09:50;7.70;;;4.68;;
62584;SDS011;48643;51.670;5.808;2022-11-13T08:12:35;7.65;;;4.90;;
62584;SDS011;48643;51.670;5.808;2022-11-13T08:15:21;6.50;;;4.68;;
62584;SDS011;48643;51.670;5.808;2022-11-13T08:18:06;8.18;;;4.85;;
62584;SDS011;48643;51.670;5.808;2022-11-13T08:20:52;9.40;;;4.60;;
62584;SDS011;48643;51.670;5.808;2022-11-13T08:23:39;10.82;;;4.97;;
62584;SDS011;48643;51.670;5.808;2022-11-13T08:26:25;11.93;;;4.72;;
62584;SDS011;48643;51.670;5.808;2022-11-13T08:29:11;11.20;;;4.50;;
62584;SDS011;48643;51.670;5.808;2022-11-13T08:31:56;8.05;;;4.50;;
62584;SDS011;48643;51.670;5.808;2022-11-13T08:34:42;9.93;;;4.47;;
62584;SDS011;48643;51.670;5.808;2022-11-13T08:37:27;14.88;;;4.55;;
62584;SDS011;48643;51.670;5.808;2022-11-13T08:40:13;6.38;;;4.22;;
62584;SDS011;48643;51.670;5.808;2022-11-13T08:42:59;7.13;;;4.30;;
62584;SDS011;48643;51.670;5.808;2022-11-13T08:45:45;6.93;;;4.43;;
62584;SDS011;48643;51.670;5.808;2022-11-13T08:48:31;6.05;;;4.28;;
62584;SDS011;48643;51.670;5.808;2022-11-13T08:51:16;7.90;;;4.35;;
62584;SDS011;48643;51.670;5.808;2022-11-13T08:54:02;8.43;;;4.60;;
62584;SDS011;48643;51.670;5.808;2022-11-13T08:56:48;6.75;;;4.20;;
62584;SDS011;48643;51.670;5.808;2022-11-13T08:59:40;8.98;;;4.15;;
62584;SDS011;48643;51.670;5.808;2022-11-13T09:02:26;8.95;;;4.25;;
62584;SDS011;48643;51.670;5.808;2022-11-13T09:05:11;7.40;;;4.35;;
62584;SDS011;48643;51.670;5.808;2022-11-13T09:07:58;16.23;;;4.53;;
62584;SDS011;48643;51.670;5.808;2022-11-13T09:10:43;11.77;;;4.20;;
62584;SDS011;48643;51.670;5.808;2022-11-13T09:13:29;13.35;;;4.13;;
62584;SDS011;48643;51.670;5.808;2022-11-13T09:16:15;7.18;;;4.10;;
62584;SDS011;48643;51.670;5.808;2022-11-13T09:19:01;9.00;;;3.90;;
62584;SDS011;48643;51.670;5.808;2022-11-13T09:21:47;9.45;;;4.43;;
62584;SDS011;48643;51.670;5.808;2022-11-13T09:24:32;10.45;;;4.28;;
62584;SDS011;48643;51.670;5.808;2022-11-13T09:27:19;11.45;;;4.40;;
62584;SDS011;48643;51.670;5.808;2022-11-13T09:30:04;8.05;;;4.00;;
62584;SDS011;48643;51.670;5.808;2022-11-13T09:32:54;12.52;;;4.45;;
62584;SDS011;48643;51.670;5.808;2022-11-13T09:35:40;12.10;;;4.40;;
62584;SDS011;48643;51.670;5.808;2022-11-13T09:38:26;7.55;;;4.28;;
62584;SDS011;48643;51.670;5.808;2022-11-13T09:41:17;7.75;;;4.53;;
62584;SDS011;48643;51.670;5.808;2022-11-13T09:44:05;7.57;;;4.07;;
62584;SDS011;48643;51.670;5.808;2022-11-13T09:47:29;9.90;;;4.28;;
62584;SDS011;48643;51.670;5.808;2022-11-13T09:50:26;8.45;;;4.30;;
62584;SDS011;48643;51.670;5.808;2022-11-13T09:53:13;10.10;;;4.43;;
62584;SDS011;48643;51.670;5.808;2022-11-13T09:56:15;7.07;;;4.15;;
62584;SDS011;48643;51.670;5.808;2022-11-13T09:59:20;9.10;;;4.18;;
62584;SDS011;48643;51.670;5.808;2022-11-13T10:05:19;8.75;;;4.13;;
62584;SDS011;48643;51.670;5.808;2022-11-13T10:08:26;10.50;;;4.40;;
62584;SDS011;48643;51.670;5.808;2022-11-13T10:11:22;10.95;;;4.18;;
62584;SDS011;48643;51.670;5.808;2022-11-13T10:14:17;12.65;;;4.43;;
62584;SDS011;48643;51.670;5.808;2022-11-13T10:17:13;12.02;;;4.18;;
62584;SDS011;48643;51.670;5.808;2022-11-13T10:20:23;8.57;;;4.20;;
62584;SDS011;48643;51.670;5.808;2022-11-13T10:23:20;13.85;;;4.28;;
62584;SDS011;48643;51.670;5.808;2022-11-13T10:26:15;12.82;;;4.30;;
62584;SDS011;48643;51.670;5.808;2022-11-13T10:29:09;17.63;;;4.25;;
62584;SDS011;48643;51.670;5.808;2022-11-13T10:31:57;12.73;;;4.03;;
62584;SDS011;48643;51.670;5.808;2022-11-13T10:34:50;10.52;;;4.55;;
62584;SDS011;48643;51.670;5.808;2022-11-13T10:40:38;7.57;;;4.20;;
62584;SDS011;48643;51.670;5.808;2022-11-13T10:43:24;7.97;;;3.95;;
62584;SDS011;48643;51.670;5.808;2022-11-13T10:46:21;7.00;;;4.00;;
62584;SDS011;48643;51.670;5.808;2022-11-13T10:49:12;9.00;;;4.25;;
62584;SDS011;48643;51.670;5.808;2022-11-13T10:52:18;14.73;;;3.97;;
62584;SDS011;48643;51.670;5.808;2022-11-13T10:55:37;7.75;;;3.97;;
62584;SDS011;48643;51.670;5.808;2022-11-13T10:58:24;7.68;;;3.70;;
62584;SDS011;48643;51.670;5.808;2022-11-13T11:01:14;10.98;;;4.20;;
62584;SDS011;48643;51.670;5.808;2022-11-13T11:04:04;7.85;;;3.95;;
62584;SDS011;48643;51.670;5.808;2022-11-13T11:10:06;9.25;;;3.80;;
62584;SDS011;48643;51.670;5.808;2022-11-13T11:13:08;9.88;;;4.15;;
62584;SDS011;48643;51.670;5.808;2022-11-13T11:15:57;12.77;;;3.72;;
62584;SDS011;48643;51.670;5.808;2022-11-13T11:18:51;11.70;;;3.60;;
62584;SDS011;48643;51.670;5.808;2022-11-13T11:21:40;8.25;;;3.70;;
62584;SDS011;48643;51.670;5.808;2022-11-13T11:24:29;9.52;;;3.88;;
62584;SDS011;48643;51.670;5.808;2022-11-13T11:27:25;10.48;;;3.78;;
62584;SDS011;48643;51.670;5.808;2022-11-13T11:33:10;20.15;;;3.97;;
62584;SDS011;48643;51.670;5.808;2022-11-13T11:36:32;10.73;;;3.88;;
62584;SDS011;48643;51.670;5.808;2022-11-13T11:45:09;8.50;;;3.60;;
62584;SDS011;48643;51.670;5.808;2022-11-13T11:48:15;5.90;;;3.47;;
62584;SDS011;48643;51.670;5.808;2022-11-13T11:51:07;13.27;;;3.60;;
62584;SDS011;48643;51.670;5.808;2022-11-13T12:00:23;6.32;;;3.72;;
62584;SDS011;48643;51.670;5.808;2022-11-13T12:09:29;8.75;;;3.50;;
62584;SDS011;48643;51.670;5.808;2022-11-13T12:21:36;5.35;;;3.70;;
62584;SDS011;48643;51.670;5.808;2022-11-13T12:28:08;11.90;;;3.85;;
62584;SDS011;48643;51.670;5.808;2022-11-13T12:36:55;10.82;;;3.40;;
62584;SDS011;48643;51.670;5.808;2022-11-13T12:39:52;10.77;;;3.28;;
62584;SDS011;48643;51.670;5.808;2022-11-13T12:42:43;11.70;;;3.38;;
62584;SDS011;48643;51.670;5.808;2022-11-13T12:48:26;7.65;;;3.47;;
62584;SDS011;48643;51.670;5.808;2022-11-13T12:51:17;12.00;;;3.85;;
62584;SDS011;48643;51.670;5.808;2022-11-13T12:54:02;9.18;;;3.40;;
62584;SDS011;48643;51.670;5.808;2022-11-13T12:56:48;5.97;;;3.42;;
62584;SDS011;48643;51.670;5.808;2022-11-13T12:59:38;4.65;;;3.35;;
62584;SDS011;48643;51.670;5.808;2022-11-13T13:02:29;5.03;;;3.40;;
62584;SDS011;48643;51.670;5.808;2022-11-13T13:05:27;6.22;;;3.38;;
62584;SDS011;48643;51.670;5.808;2022-11-13T13:08:43;8.77;;;3.65;;
62584;SDS011;48643;51.670;5.808;2022-11-13T13:11:36;9.85;;;3.40;;
62584;SDS011;48643;51.670;5.808;2022-11-13T13:22:59;7.03;;;3.50;;
62584;SDS011;48643;51.670;5.808;2022-11-13T13:25:59;6.95;;;3.50;;
62584;SDS011;48643;51.670;5.808;2022-11-13T13:28:50;7.28;;;3.30;;
62584;SDS011;48643;51.670;5.808;2022-11-13T13:31:43;7.93;;;3.20;;
62584;SDS011;48643;51.670;5.808;2022-11-13T13:34:50;5.90;;;3.50;;
62584;SDS011;48643;51.670;5.808;2022-11-13T13:37:48;9.48;;;3.40;;
62584;SDS011;48643;51.670;5.808;2022-11-13T13:40:57;14.32;;;4.00;;
62584;SDS011;48643;51.670;5.808;2022-11-13T13:46:56;9.35;;;3.92;;
62584;SDS011;48643;51.670;5.808;2022-11-13T13:49:41;8.98;;;3.40;;
62584;SDS011;48643;51.670;5.808;2022-11-13T13:52:28;8.52;;;3.42;;
62584;SDS011;48643;51.670;5.808;2022-11-13T13:55:16;16.80;;;3.97;;
62584;SDS011;48643;51.670;5.808;2022-11-13T13:58:08;7.90;;;4.00;;
62584;SDS011;48643;51.670;5.808;2022-11-13T14:00:58;6.68;;;3.58;;
62584;SDS011;48643;51.670;5.808;2022-11-13T14:04:11;8.40;;;3.80;;
62584;SDS011;48643;51.670;5.808;2022-11-13T14:06:59;10.05;;;3.67;;
62584;SDS011;48643;51.670;5.808;2022-11-13T14:09:45;7.53;;;3.80;;
62584;SDS011;48643;51.670;5.808;2022-11-13T14:12:31;8.27;;;3.72;;
62584;SDS011;48643;51.670;5.808;2022-11-13T14:15:29;11.25;;;4.20;;
62584;SDS011;48643;51.670;5.808;2022-11-13T14:18:16;11.85;;;3.90;;
62584;SDS011;48643;51.670;5.808;2022-11-13T14:21:09;10.20;;;3.60;;
62584;SDS011;48643;51.670;5.808;2022-11-13T14:24:00;11.48;;;4.30;;
62584;SDS011;48643;51.670;5.808;2022-11-13T14:26:47;9.02;;;3.90;;
62584;SDS011;48643;51.670;5.808;2022-11-13T14:29:35;11.10;;;4.30;;
62584;SDS011;48643;51.670;5.808;2022-11-13T14:32:27;13.32;;;4.18;;
62584;SDS011;48643;51.670;5.808;2022-11-13T14:35:21;10.77;;;3.97;;
62584;SDS011;48643;51.670;5.808;2022-11-13T14:38:19;10.27;;;4.07;;
62584;SDS011;48643;51.670;5.808;2022-11-13T14:44:32;12.73;;;4.63;;
62584;SDS011;48643;51.670;5.808;2022-11-13T14:47:28;10.00;;;4.03;;
62584;SDS011;48643;51.670;5.808;2022-11-13T14:53:13;9.05;;;3.90;;
62584;SDS011;48643;51.670;5.808;2022-11-13T14:56:14;11.65;;;4.03;;
62584;SDS011;48643;51.670;5.808;2022-11-13T14:59:06;11.07;;;4.28;;
62584;SDS011;48643;51.670;5.808;2022-11-13T15:02:03;8.65;;;3.60;;
62584;SDS011;48643;51.670;5.808;2022-11-13T15:04:49;9.85;;;3.80;;
62584;SDS011;48643;51.670;5.808;2022-11-13T15:07:36;12.15;;;4.10;;
62584;SDS011;48643;51.670;5.808;2022-11-13T15:10:25;10.60;;;3.95;;
62584;SDS011;48643;51.670;5.808;2022-11-13T15:13:12;13.38;;;4.10;;
62584;SDS011;48643;51.670;5.808;2022-11-13T15:15:58;7.93;;;4.32;;
62584;SDS011;48643;51.670;5.808;2022-11-13T15:18:49;11.05;;;4.25;;
62584;SDS011;48643;51.670;5.808;2022-11-13T15:21:43;10.13;;;4.15;;
62584;SDS011;48643;51.670;5.808;2022-11-13T15:24:49;9.85;;;3.97;;
62584;SDS011;48643;51.670;5.808;2022-11-13T15:27:34;10.13;;;4.38;;
62584;SDS011;48643;51.670;5.808;2022-11-13T15:30:26;9.90;;;4.25;;
62584;SDS011;48643;51.670;5.808;2022-11-13T15:33:13;12.30;;;4.88;;
62584;SDS011;48643;51.670;5.808;2022-11-13T15:35:58;10.85;;;4.88;;
62584;SDS011;48643;51.670;5.808;2022-11-13T15:38:44;12.18;;;5.55;;
62584;SDS011;48643;51.670;5.808;2022-11-13T15:41:30;13.25;;;6.13;;
62584;SDS011;48643;51.670;5.808;2022-11-13T15:44:17;12.00;;;6.18;;
62584;SDS011;48643;51.670;5.808;2022-11-13T15:47:07;15.13;;;6.93;;
62584;SDS011;48643;51.670;5.808;2022-11-13T15:50:10;19.50;;;6.78;;
62584;SDS011;48643;51.670;5.808;2022-11-13T15:52:59;13.65;;;5.88;;
62584;SDS011;48643;51.670;5.808;2022-11-13T15:55:49;16.55;;;6.38;;
62584;SDS011;48643;51.670;5.808;2022-11-13T15:58:34;14.75;;;5.72;;
62584;SDS011;48643;51.670;5.808;2022-11-13T16:01:20;17.30;;;5.93;;
62584;SDS011;48643;51.670;5.808;2022-11-13T16:04:06;15.15;;;5.85;;
62584;SDS011;48643;51.670;5.808;2022-11-13T16:06:51;11.88;;;5.70;;
62584;SDS011;48643;51.670;5.808;2022-11-13T16:09:38;13.27;;;5.47;;
62584;SDS011;48643;51.670;5.808;2022-11-13T16:12:24;11.48;;;5.25;;
62584;SDS011;48643;51.670;5.808;2022-11-13T16:15:12;10.60;;;5.35;;
62584;SDS011;48643;51.670;5.808;2022-11-13T16:18:00;12.55;;;4.97;;
62584;SDS011;48643;51.670;5.808;2022-11-13T16:20:46;10.73;;;5.03;;
62584;SDS011;48643;51.670;5.808;2022-11-13T16:23:31;11.38;;;5.13;;
62584;SDS011;48643;51.670;5.808;2022-11-13T16:26:18;11.70;;;5.10;;
62584;SDS011;48643;51.670;5.808;2022-11-13T16:29:16;14.52;;;5.20;;
62584;SDS011;48643;51.670;5.808;2022-11-13T16:32:03;12.90;;;5.27;;
62584;SDS011;48643;51.670;5.808;2022-11-13T16:34:48;11.65;;;5.22;;
62584;SDS011;48643;51.670;5.808;2022-11-13T16:37:34;12.65;;;5.50;;
62584;SDS011;48643;51.670;5.808;2022-11-13T16:40:21;11.60;;;5.47;;
62584;SDS011;48643;51.670;5.808;2022-11-13T16:43:08;12.35;;;5.10;;
62584;SDS011;48643;51.670;5.808;2022-11-13T16:45:54;10.30;;;4.38;;
62584;SDS011;48643;51.670;5.808;2022-11-13T16:48:39;10.57;;;4.93;;
62584;SDS011;48643;51.670;5.808;2022-11-13T16:51:25;8.38;;;4.47;;
62584;SDS011;48643;51.670;5.808;2022-11-13T16:54:11;9.07;;;4.90;;
62584;SDS011;48643;51.670;5.808;2022-11-13T16:56:56;11.93;;;5.10;;
62584;SDS011;48643;51.670;5.808;2022-11-13T16:59:42;10.90;;;4.43;;
62584;SDS011;48643;51.670;5.808;2022-11-13T17:02:27;9.75;;;4.97;;
62584;SDS011;48643;51.670;5.808;2022-11-13T17:05:13;10.63;;;4.30;;
62584;SDS011;48643;51.670;5.808;2022-11-13T17:07:59;10.38;;;4.95;;
62584;SDS011;48643;51.670;5.808;2022-11-13T17:10:45;9.70;;;4.53;;
62584;SDS011;48643;51.670;5.808;2022-11-13T17:13:31;8.50;;;4.60;;
62584;SDS011;48643;51.670;5.808;2022-11-13T17:16:16;8.00;;;4.32;;
62584;SDS011;48643;51.670;5.808;2022-11-13T17:19:02;8.98;;;4.55;;
62584;SDS011;48643;51.670;5.808;2022-11-13T17:21:47;9.73;;;4.40;;
62584;SDS011;48643;51.670;5.808;2022-11-13T17:24:32;6.88;;;4.35;;
62584;SDS011;48643;51.670;5.808;2022-11-13T17:27:18;9.18;;;4.43;;
62584;SDS011;48643;51.670;5.808;2022-11-13T17:30:04;8.55;;;4.55;;
62584;SDS011;48643;51.670;5.808;2022-11-13T17:32:49;9.00;;;4.50;;
62584;SDS011;48643;51.670;5.808;2022-11-13T17:35:35;17.38;;;4.53;;
62584;SDS011;48643;51.670;5.808;2022-11-13T17:38:20;10.35;;;4.30;;
62584;SDS011;48643;51.670;5.808;2022-11-13T17:41:10;11.85;;;4.72;;
62584;SDS011;48643;51.670;5.808;2022-11-13T17:43:57;10.05;;;4.40;;
62584;SDS011;48643;51.670;5.808;2022-11-13T17:46:45;13.88;;;4.82;;
62584;SDS011;48643;51.670;5.808;2022-11-13T17:49:31;10.02;;;5.43;;
62584;SDS011;48643;51.670;5.808;2022-11-13T17:52:16;12.57;;;5.35;;
62584;SDS011;48643;51.670;5.808;2022-11-13T17:55:02;10.60;;;5.35;;
62584;SDS011;48643;51.670;5.808;2022-11-13T17:57:50;13.77;;;5.70;;
62584;SDS011;48643;51.670;5.808;2022-11-13T18:00:35;16.45;;;5.80;;
62584;SDS011;48643;51.670;5.808;2022-11-13T18:03:21;17.15;;;5.90;;
62584;SDS011;48643;51.670;5.808;2022-11-13T18:06:16;16.83;;;5.57;;